sensor_id;sensor_type;location;lat;lon;timestamp;P1;durP1;ratioP1;P2;durP2;ratioP2
72201;SDS011;60105;54.956;73.412;2023-03-14T00:01:45;10.25;;;5.38;;
72201;SDS011;60105;54.956;73.412;2023-03-14T00:04:46;13.40;;;4.83;;
72201;SDS011;60105;54.956;73.412;2023-03-14T00:12:00;13.02;;;5.55;;
72201;SDS011;60105;54.956;73.412;2023-03-14T00:15:22;9.73;;;6.07;;
72201;SDS011;60105;54.956;73.412;2023-03-14T00:18:42;12.97;;;6.00;;
72201;SDS011;60105;54.956;73.412;2023-03-14T00:22:02;10.60;;;5.20;;
72201;SDS011;60105;54.956;73.412;2023-03-14T00:25:32;7.30;;;5.13;;
72201;SDS011;60105;54.956;73.412;2023-03-14T00:28:57;11.83;;;5.90;;
72201;SDS011;60105;54.956;73.412;2023-03-14T00:32:17;9.90;;;5.22;;
72201;SDS011;60105;54.956;73.412;2023-03-14T00:35:37;7.90;;;6.07;;
72201;SDS011;60105;54.956;73.412;2023-03-14T00:38:57;8.80;;;4.97;;
72201;SDS011;60105;54.956;73.412;2023-03-14T00:42:27;9.55;;;4.90;;
72201;SDS011;60105;54.956;73.412;2023-03-14T00:45:51;8.20;;;4.93;;
72201;SDS011;60105;54.956;73.412;2023-03-14T00:49:12;7.47;;;4.53;;
72201;SDS011;60105;54.956;73.412;2023-03-14T00:52:39;8.50;;;5.20;;
72201;SDS011;60105;54.956;73.412;2023-03-14T00:55:41;8.23;;;4.40;;
72201;SDS011;60105;54.956;73.412;2023-03-14T00:58:43;8.60;;;5.37;;
72201;SDS011;60105;54.956;73.412;2023-03-14T01:01:55;9.07;;;5.20;;
72201;SDS011;60105;54.956;73.412;2023-03-14T01:04:57;10.00;;;5.73;;
72201;SDS011;60105;54.956;73.412;2023-03-14T01:08:30;11.15;;;5.95;;
72201;SDS011;60105;54.956;73.412;2023-03-14T01:11:36;11.18;;;6.10;;
72201;SDS011;60105;54.956;73.412;2023-03-14T01:14:37;8.83;;;5.13;;
72201;SDS011;60105;54.956;73.412;2023-03-14T01:17:39;8.30;;;5.75;;
72201;SDS011;60105;54.956;73.412;2023-03-14T01:20:41;9.63;;;5.38;;
72201;SDS011;60105;54.956;73.412;2023-03-14T01:23:53;11.57;;;5.93;;
72201;SDS011;60105;54.956;73.412;2023-03-14T01:26:56;11.45;;;6.18;;
72201;SDS011;60105;54.956;73.412;2023-03-14T01:30:04;13.73;;;6.53;;
72201;SDS011;60105;54.956;73.412;2023-03-14T01:36:38;11.38;;;6.30;;
72201;SDS011;60105;54.956;73.412;2023-03-14T01:39:39;13.13;;;6.47;;
72201;SDS011;60105;54.956;73.412;2023-03-14T01:42:44;11.32;;;6.35;;
72201;SDS011;60105;54.956;73.412;2023-03-14T01:49:16;10.27;;;6.32;;
72201;SDS011;60105;54.956;73.412;2023-03-14T01:52:46;9.35;;;5.38;;
72201;SDS011;60105;54.956;73.412;2023-03-14T01:55:53;11.13;;;6.35;;
72201;SDS011;60105;54.956;73.412;2023-03-14T01:59:00;7.83;;;5.53;;
72201;SDS011;60105;54.956;73.412;2023-03-14T02:02:04;10.10;;;6.43;;
72201;SDS011;60105;54.956;73.412;2023-03-14T02:05:17;9.90;;;5.73;;
72201;SDS011;60105;54.956;73.412;2023-03-14T02:08:33;6.80;;;5.30;;
72201;SDS011;60105;54.956;73.412;2023-03-14T02:11:46;7.35;;;5.18;;
72201;SDS011;60105;54.956;73.412;2023-03-14T02:15:02;12.87;;;6.23;;
72201;SDS011;60105;54.956;73.412;2023-03-14T02:18:27;8.95;;;6.57;;
72201;SDS011;60105;54.956;73.412;2023-03-14T02:22:09;12.90;;;6.40;;
72201;SDS011;60105;54.956;73.412;2023-03-14T02:28:38;6.70;;;4.73;;
72201;SDS011;60105;54.956;73.412;2023-03-14T02:31:39;8.88;;;5.15;;
72201;SDS011;60105;54.956;73.412;2023-03-14T02:34:41;9.20;;;5.97;;
72201;SDS011;60105;54.956;73.412;2023-03-14T02:37:52;9.50;;;5.47;;
72201;SDS011;60105;54.956;73.412;2023-03-14T02:41:01;11.40;;;6.57;;
72201;SDS011;60105;54.956;73.412;2023-03-14T02:44:06;10.27;;;5.65;;
72201;SDS011;60105;54.956;73.412;2023-03-14T02:47:08;12.77;;;6.35;;
72201;SDS011;60105;54.956;73.412;2023-03-14T02:50:14;6.30;;;4.10;;
72201;SDS011;60105;54.956;73.412;2023-03-14T02:53:32;6.30;;;4.30;;
72201;SDS011;60105;54.956;73.412;2023-03-14T02:56:40;7.17;;;4.60;;
72201;SDS011;60105;54.956;73.412;2023-03-14T02:59:45;8.93;;;5.07;;
72201;SDS011;60105;54.956;73.412;2023-03-14T03:03:30;7.72;;;4.22;;
72201;SDS011;60105;54.956;73.412;2023-03-14T03:06:32;11.93;;;6.75;;
72201;SDS011;60105;54.956;73.412;2023-03-14T03:09:34;13.53;;;6.37;;
72201;SDS011;60105;54.956;73.412;2023-03-14T03:12:35;7.47;;;5.93;;
72201;SDS011;60105;54.956;73.412;2023-03-14T03:15:37;15.02;;;7.10;;
72201;SDS011;60105;54.956;73.412;2023-03-14T03:18:47;12.65;;;7.90;;
72201;SDS011;60105;54.956;73.412;2023-03-14T03:21:49;15.88;;;7.88;;
72201;SDS011;60105;54.956;73.412;2023-03-14T03:24:55;13.13;;;7.47;;
72201;SDS011;60105;54.956;73.412;2023-03-14T03:28:30;14.52;;;6.55;;
72201;SDS011;60105;54.956;73.412;2023-03-14T03:31:33;13.52;;;6.88;;
72201;SDS011;60105;54.956;73.412;2023-03-14T03:34:34;11.53;;;6.60;;
72201;SDS011;60105;54.956;73.412;2023-03-14T03:37:36;16.13;;;7.03;;
72201;SDS011;60105;54.956;73.412;2023-03-14T03:40:39;13.23;;;6.53;;
72201;SDS011;60105;54.956;73.412;2023-03-14T03:43:43;9.18;;;5.45;;
72201;SDS011;60105;54.956;73.412;2023-03-14T03:46:46;10.70;;;5.17;;
72201;SDS011;60105;54.956;73.412;2023-03-14T03:49:47;7.70;;;4.63;;
72201;SDS011;60105;54.956;73.412;2023-03-14T03:53:30;9.22;;;5.18;;
72201;SDS011;60105;54.956;73.412;2023-03-14T03:56:31;9.27;;;5.50;;
72201;SDS011;60105;54.956;73.412;2023-03-14T03:59:32;11.23;;;6.57;;
72201;SDS011;60105;54.956;73.412;2023-03-14T04:02:34;10.57;;;5.80;;
72201;SDS011;60105;54.956;73.412;2023-03-14T04:05:41;11.20;;;5.37;;
72201;SDS011;60105;54.956;73.412;2023-03-14T04:08:44;15.27;;;6.23;;
72201;SDS011;60105;54.956;73.412;2023-03-14T04:12:26;9.80;;;5.15;;
72201;SDS011;60105;54.956;73.412;2023-03-14T04:15:49;11.23;;;5.60;;
72201;SDS011;60105;54.956;73.412;2023-03-14T04:18:58;12.17;;;4.90;;
72201;SDS011;60105;54.956;73.412;2023-03-14T04:22:06;16.17;;;5.28;;
72201;SDS011;60105;54.956;73.412;2023-03-14T04:25:17;16.08;;;6.82;;
72201;SDS011;60105;54.956;73.412;2023-03-14T04:31:32;8.15;;;5.40;;
72201;SDS011;60105;54.956;73.412;2023-03-14T04:34:38;9.43;;;5.87;;
72201;SDS011;60105;54.956;73.412;2023-03-14T04:37:45;11.38;;;5.65;;
72201;SDS011;60105;54.956;73.412;2023-03-14T04:41:00;7.60;;;5.07;;
72201;SDS011;60105;54.956;73.412;2023-03-14T04:44:05;8.47;;;5.57;;
72201;SDS011;60105;54.956;73.412;2023-03-14T04:47:08;11.15;;;5.32;;
72201;SDS011;60105;54.956;73.412;2023-03-14T04:50:10;8.20;;;5.40;;
72201;SDS011;60105;54.956;73.412;2023-03-14T04:56:32;8.25;;;4.78;;
72201;SDS011;60105;54.956;73.412;2023-03-14T04:59:36;11.52;;;5.55;;
72201;SDS011;60105;54.956;73.412;2023-03-14T05:06:50;7.43;;;5.17;;
72201;SDS011;60105;54.956;73.412;2023-03-14T05:10:17;8.88;;;5.38;;
72201;SDS011;60105;54.956;73.412;2023-03-14T05:13:35;6.77;;;5.17;;
72201;SDS011;60105;54.956;73.412;2023-03-14T05:17:00;7.95;;;5.45;;
72201;SDS011;60105;54.956;73.412;2023-03-14T05:20:33;6.75;;;5.35;;
72201;SDS011;60105;54.956;73.412;2023-03-14T05:24:11;10.48;;;5.50;;
72201;SDS011;60105;54.956;73.412;2023-03-14T05:27:30;9.05;;;4.88;;
72201;SDS011;60105;54.956;73.412;2023-03-14T05:30:58;9.38;;;5.72;;
72201;SDS011;60105;54.956;73.412;2023-03-14T05:33:59;10.77;;;5.50;;
72201;SDS011;60105;54.956;73.412;2023-03-14T05:37:11;7.25;;;5.20;;
72201;SDS011;60105;54.956;73.412;2023-03-14T05:40:28;9.97;;;5.73;;
72201;SDS011;60105;54.956;73.412;2023-03-14T05:43:48;14.03;;;5.20;;
72201;SDS011;60105;54.956;73.412;2023-03-14T05:47:16;10.10;;;5.70;;
72201;SDS011;60105;54.956;73.412;2023-03-14T05:50:17;10.90;;;5.87;;
72201;SDS011;60105;54.956;73.412;2023-03-14T05:53:37;5.80;;;4.68;;
72201;SDS011;60105;54.956;73.412;2023-03-14T05:57:05;10.75;;;5.70;;
72201;SDS011;60105;54.956;73.412;2023-03-14T06:00:15;9.45;;;6.05;;
72201;SDS011;60105;54.956;73.412;2023-03-14T06:03:46;12.48;;;6.18;;
72201;SDS011;60105;54.956;73.412;2023-03-14T06:06:47;14.77;;;6.25;;
72201;SDS011;60105;54.956;73.412;2023-03-14T06:09:49;11.40;;;5.32;;
72201;SDS011;60105;54.956;73.412;2023-03-14T06:13:30;12.40;;;6.13;;
72201;SDS011;60105;54.956;73.412;2023-03-14T06:16:31;8.93;;;5.35;;
72201;SDS011;60105;54.956;73.412;2023-03-14T06:19:34;9.33;;;5.27;;
72201;SDS011;60105;54.956;73.412;2023-03-14T06:22:36;10.97;;;5.20;;
72201;SDS011;60105;54.956;73.412;2023-03-14T06:25:50;8.23;;;4.47;;
72201;SDS011;60105;54.956;73.412;2023-03-14T06:29:01;7.60;;;4.67;;
72201;SDS011;60105;54.956;73.412;2023-03-14T06:32:05;10.13;;;4.88;;
72201;SDS011;60105;54.956;73.412;2023-03-14T06:35:06;8.20;;;5.00;;
72201;SDS011;60105;54.956;73.412;2023-03-14T06:41:37;7.30;;;4.07;;
72201;SDS011;60105;54.956;73.412;2023-03-14T06:44:39;9.67;;;4.70;;
72201;SDS011;60105;54.956;73.412;2023-03-14T06:47:42;8.65;;;3.85;;
72201;SDS011;60105;54.956;73.412;2023-03-14T06:50:44;6.97;;;4.22;;
72201;SDS011;60105;54.956;73.412;2023-03-14T06:53:49;8.80;;;5.07;;
72201;SDS011;60105;54.956;73.412;2023-03-14T06:56:52;7.57;;;4.20;;
72201;SDS011;60105;54.956;73.412;2023-03-14T06:59:53;10.27;;;4.77;;
72201;SDS011;60105;54.956;73.412;2023-03-14T07:03:30;5.78;;;3.80;;
72201;SDS011;60105;54.956;73.412;2023-03-14T07:06:33;6.33;;;4.47;;
72201;SDS011;60105;54.956;73.412;2023-03-14T07:09:35;7.00;;;4.18;;
72201;SDS011;60105;54.956;73.412;2023-03-14T07:12:36;7.20;;;4.70;;
72201;SDS011;60105;54.956;73.412;2023-03-14T07:15:37;12.10;;;4.47;;
72201;SDS011;60105;54.956;73.412;2023-03-14T07:18:43;6.67;;;4.77;;
72201;SDS011;60105;54.956;73.412;2023-03-14T07:21:45;6.97;;;4.40;;
72201;SDS011;60105;54.956;73.412;2023-03-14T07:24:48;10.20;;;4.83;;
72201;SDS011;60105;54.956;73.412;2023-03-14T07:28:30;8.48;;;4.78;;
72201;SDS011;60105;54.956;73.412;2023-03-14T07:31:41;7.55;;;4.88;;
72201;SDS011;60105;54.956;73.412;2023-03-14T07:34:43;5.93;;;4.72;;
72201;SDS011;60105;54.956;73.412;2023-03-14T07:37:44;8.45;;;4.80;;
72201;SDS011;60105;54.956;73.412;2023-03-14T07:40:47;11.10;;;4.50;;
72201;SDS011;60105;54.956;73.412;2023-03-14T07:43:49;9.88;;;5.43;;
72201;SDS011;60105;54.956;73.412;2023-03-14T07:46:50;5.80;;;4.30;;
72201;SDS011;60105;54.956;73.412;2023-03-14T07:49:51;10.30;;;5.70;;
72201;SDS011;60105;54.956;73.412;2023-03-14T07:53:30;7.45;;;4.97;;
72201;SDS011;60105;54.956;73.412;2023-03-14T07:56:31;11.23;;;6.07;;
72201;SDS011;60105;54.956;73.412;2023-03-14T07:59:37;9.17;;;4.83;;
72201;SDS011;60105;54.956;73.412;2023-03-14T08:03:30;7.03;;;4.43;;
72201;SDS011;60105;54.956;73.412;2023-03-14T08:06:41;7.88;;;4.90;;
72201;SDS011;60105;54.956;73.412;2023-03-14T08:09:53;9.43;;;5.23;;
72201;SDS011;60105;54.956;73.412;2023-03-14T08:13:30;11.75;;;5.13;;
72201;SDS011;60105;54.956;73.412;2023-03-14T08:16:38;10.13;;;5.27;;
72201;SDS011;60105;54.956;73.412;2023-03-14T08:19:44;8.85;;;5.32;;
72201;SDS011;60105;54.956;73.412;2023-03-14T08:22:45;12.15;;;5.72;;
72201;SDS011;60105;54.956;73.412;2023-03-14T08:25:50;8.80;;;5.53;;
72201;SDS011;60105;54.956;73.412;2023-03-14T08:28:52;7.87;;;4.53;;
72201;SDS011;60105;54.956;73.412;2023-03-14T08:31:53;11.00;;;5.97;;
72201;SDS011;60105;54.956;73.412;2023-03-14T08:34:55;8.27;;;5.37;;
72201;SDS011;60105;54.956;73.412;2023-03-14T08:38:30;9.98;;;5.50;;
72201;SDS011;60105;54.956;73.412;2023-03-14T08:41:31;8.65;;;4.75;;
72201;SDS011;60105;54.956;73.412;2023-03-14T08:44:32;8.77;;;4.87;;
72201;SDS011;60105;54.956;73.412;2023-03-14T08:47:33;7.15;;;5.03;;
72201;SDS011;60105;54.956;73.412;2023-03-14T08:50:35;7.33;;;4.73;;
72201;SDS011;60105;54.956;73.412;2023-03-14T08:53:36;4.77;;;3.73;;
72201;SDS011;60105;54.956;73.412;2023-03-14T08:56:37;8.00;;;5.47;;
72201;SDS011;60105;54.956;73.412;2023-03-14T08:59:44;9.25;;;5.25;;
72201;SDS011;60105;54.956;73.412;2023-03-14T09:03:30;9.70;;;5.21;;
72201;SDS011;60105;54.956;73.412;2023-03-14T09:06:36;8.65;;;5.30;;
72201;SDS011;60105;54.956;73.412;2023-03-14T09:09:37;12.45;;;5.47;;
72201;SDS011;60105;54.956;73.412;2023-03-14T09:12:39;10.83;;;5.53;;
72201;SDS011;60105;54.956;73.412;2023-03-14T09:15:40;8.52;;;5.10;;
72201;SDS011;60105;54.956;73.412;2023-03-14T09:18:42;7.97;;;5.60;;
72201;SDS011;60105;54.956;73.412;2023-03-14T09:21:44;8.00;;;4.90;;
72201;SDS011;60105;54.956;73.412;2023-03-14T09:24:45;6.97;;;4.93;;
72201;SDS011;60105;54.956;73.412;2023-03-14T09:28:30;7.45;;;4.78;;
72201;SDS011;60105;54.956;73.412;2023-03-14T09:31:31;8.73;;;5.25;;
72201;SDS011;60105;54.956;73.412;2023-03-14T09:34:42;7.50;;;4.60;;
72201;SDS011;60105;54.956;73.412;2023-03-14T09:37:43;10.43;;;5.55;;
72201;SDS011;60105;54.956;73.412;2023-03-14T09:40:47;11.30;;;5.13;;
72201;SDS011;60105;54.956;73.412;2023-03-14T09:43:49;8.13;;;5.07;;
72201;SDS011;60105;54.956;73.412;2023-03-14T09:47:11;7.93;;;4.87;;
72201;SDS011;60105;54.956;73.412;2023-03-14T09:50:15;9.45;;;4.88;;
72201;SDS011;60105;54.956;73.412;2023-03-14T09:56:39;7.70;;;4.67;;
72201;SDS011;60105;54.956;73.412;2023-03-14T09:59:52;7.93;;;5.10;;
72201;SDS011;60105;54.956;73.412;2023-03-14T10:03:33;7.63;;;4.75;;
72201;SDS011;60105;54.956;73.412;2023-03-14T10:06:35;8.43;;;5.33;;
72201;SDS011;60105;54.956;73.412;2023-03-14T10:09:37;10.93;;;5.57;;
72201;SDS011;60105;54.956;73.412;2023-03-14T10:12:45;12.68;;;6.15;;
72201;SDS011;60105;54.956;73.412;2023-03-14T10:15:52;9.70;;;5.23;;
72201;SDS011;60105;54.956;73.412;2023-03-14T10:19:12;10.17;;;5.67;;
72201;SDS011;60105;54.956;73.412;2023-03-14T10:22:14;9.23;;;5.50;;
72201;SDS011;60105;54.956;73.412;2023-03-14T10:25:23;10.80;;;5.05;;
72201;SDS011;60105;54.956;73.412;2023-03-14T10:29:02;9.77;;;4.38;;
72201;SDS011;60105;54.956;73.412;2023-03-14T10:32:11;7.97;;;6.00;;
72201;SDS011;60105;54.956;73.412;2023-03-14T10:35:22;8.10;;;4.82;;
72201;SDS011;60105;54.956;73.412;2023-03-14T10:41:32;10.13;;;5.85;;
72201;SDS011;60105;54.956;73.412;2023-03-14T10:44:34;12.97;;;5.17;;
72201;SDS011;60105;54.956;73.412;2023-03-14T10:47:36;9.07;;;4.53;;
72201;SDS011;60105;54.956;73.412;2023-03-14T10:54:18;8.30;;;4.17;;
72201;SDS011;60105;54.956;73.412;2023-03-14T10:57:27;13.02;;;4.80;;
72201;SDS011;60105;54.956;73.412;2023-03-14T11:00:36;12.77;;;5.50;;
72201;SDS011;60105;54.956;73.412;2023-03-14T11:03:37;7.28;;;4.70;;
72201;SDS011;60105;54.956;73.412;2023-03-14T11:06:48;7.97;;;5.07;;
72201;SDS011;60105;54.956;73.412;2023-03-14T11:09:58;9.03;;;4.80;;
72201;SDS011;60105;54.956;73.412;2023-03-14T11:13:32;9.00;;;4.90;;
72201;SDS011;60105;54.956;73.412;2023-03-14T11:36:32;6.83;;;4.77;;
72201;SDS011;60105;54.956;73.412;2023-03-14T11:39:47;6.95;;;5.00;;
72201;SDS011;60105;54.956;73.412;2023-03-14T11:53:42;14.00;;;8.40;;
72201;SDS011;60105;54.956;73.412;2023-03-14T11:57:05;12.20;;;4.50;;
72201;SDS011;60105;54.956;73.412;2023-03-14T12:00:19;11.63;;;5.30;;
72201;SDS011;60105;54.956;73.412;2023-03-14T12:09:30;7.57;;;5.20;;
72201;SDS011;60105;54.956;73.412;2023-03-14T12:12:32;9.17;;;5.33;;
72201;SDS011;60105;54.956;73.412;2023-03-14T12:15:33;11.27;;;4.88;;
72201;SDS011;60105;54.956;73.412;2023-03-14T12:18:51;7.10;;;5.80;;
72201;SDS011;60105;54.956;73.412;2023-03-14T12:28:18;13.55;;;7.25;;
72201;SDS011;60105;54.956;73.412;2023-03-14T12:32:06;14.05;;;7.72;;
72201;SDS011;60105;54.956;73.412;2023-03-14T12:38:43;12.85;;;6.22;;
72201;SDS011;60105;54.956;73.412;2023-03-14T12:45:25;12.20;;;5.87;;
72201;SDS011;60105;54.956;73.412;2023-03-14T12:48:37;10.98;;;6.55;;
72201;SDS011;60105;54.956;73.412;2023-03-14T13:08:43;16.37;;;7.77;;
72201;SDS011;60105;54.956;73.412;2023-03-14T13:15:02;15.68;;;8.02;;
72201;SDS011;60105;54.956;73.412;2023-03-14T13:22:00;12.77;;;7.82;;
72201;SDS011;60105;54.956;73.412;2023-03-14T13:25:09;14.30;;;7.78;;
72201;SDS011;60105;54.956;73.412;2023-03-14T13:28:11;17.07;;;7.90;;
72201;SDS011;60105;54.956;73.412;2023-03-14T13:32:01;14.74;;;7.39;;
72201;SDS011;60105;54.956;73.412;2023-03-14T13:38:42;13.38;;;7.50;;
72201;SDS011;60105;54.956;73.412;2023-03-14T13:45:01;10.93;;;5.97;;
72201;SDS011;60105;54.956;73.412;2023-03-14T13:48:12;12.25;;;6.78;;
72201;SDS011;60105;54.956;73.412;2023-03-14T13:51:56;10.68;;;7.43;;
72201;SDS011;60105;54.956;73.412;2023-03-14T13:54:59;13.00;;;6.75;;
72201;SDS011;60105;54.956;73.412;2023-03-14T13:58:01;15.43;;;8.87;;
72201;SDS011;60105;54.956;73.412;2023-03-14T14:01:18;14.90;;;7.53;;
72201;SDS011;60105;54.956;73.412;2023-03-14T14:04:21;11.98;;;7.47;;
72201;SDS011;60105;54.956;73.412;2023-03-14T14:07:24;12.45;;;6.10;;
72201;SDS011;60105;54.956;73.412;2023-03-14T14:10:36;10.88;;;6.65;;
72201;SDS011;60105;54.956;73.412;2023-03-14T14:13:43;11.32;;;7.82;;
72201;SDS011;60105;54.956;73.412;2023-03-14T14:16:50;11.40;;;6.70;;
72201;SDS011;60105;54.956;73.412;2023-03-14T14:19:53;14.65;;;7.50;;
72201;SDS011;60105;54.956;73.412;2023-03-14T14:22:57;15.07;;;6.87;;
72201;SDS011;60105;54.956;73.412;2023-03-14T14:26:13;12.73;;;6.97;;
72201;SDS011;60105;54.956;73.412;2023-03-14T14:29:29;12.65;;;6.90;;
72201;SDS011;60105;54.956;73.412;2023-03-14T14:32:38;14.18;;;7.93;;
72201;SDS011;60105;54.956;73.412;2023-03-14T14:35:41;12.50;;;6.77;;
72201;SDS011;60105;54.956;73.412;2023-03-14T14:38:42;12.82;;;7.40;;
72201;SDS011;60105;54.956;73.412;2023-03-14T14:44:58;14.43;;;7.27;;
72201;SDS011;60105;54.956;73.412;2023-03-14T14:48:06;10.18;;;6.32;;
72201;SDS011;60105;54.956;73.412;2023-03-14T14:51:10;12.10;;;5.95;;
72201;SDS011;60105;54.956;73.412;2023-03-14T14:57:30;12.80;;;7.78;;
72201;SDS011;60105;54.956;73.412;2023-03-14T15:00:39;13.07;;;7.15;;
72201;SDS011;60105;54.956;73.412;2023-03-14T15:03:47;12.30;;;7.43;;
72201;SDS011;60105;54.956;73.412;2023-03-14T15:10:10;15.30;;;8.70;;
72201;SDS011;60105;54.956;73.412;2023-03-14T15:13:13;20.38;;;9.18;;
72201;SDS011;60105;54.956;73.412;2023-03-14T15:16:28;14.60;;;9.02;;
72201;SDS011;60105;54.956;73.412;2023-03-14T15:19:31;19.15;;;8.57;;
72201;SDS011;60105;54.956;73.412;2023-03-14T15:22:33;17.25;;;8.75;;
72201;SDS011;60105;54.956;73.412;2023-03-14T15:25:34;16.63;;;7.33;;
72201;SDS011;60105;54.956;73.412;2023-03-14T15:28:36;18.58;;;7.97;;
72201;SDS011;60105;54.956;73.412;2023-03-14T15:35:07;15.57;;;7.43;;
72201;SDS011;60105;54.956;73.412;2023-03-14T15:38:12;16.67;;;7.57;;
72201;SDS011;60105;54.956;73.412;2023-03-14T15:41:56;13.92;;;7.88;;
72201;SDS011;60105;54.956;73.412;2023-03-14T15:44:57;13.75;;;6.68;;
72201;SDS011;60105;54.956;73.412;2023-03-14T15:47:59;17.05;;;8.40;;
72201;SDS011;60105;54.956;73.412;2023-03-14T15:51:00;17.08;;;8.57;;
72201;SDS011;60105;54.956;73.412;2023-03-14T15:54:01;21.53;;;8.53;;
72201;SDS011;60105;54.956;73.412;2023-03-14T15:57:03;10.82;;;6.22;;
72201;SDS011;60105;54.956;73.412;2023-03-14T16:00:15;14.52;;;6.72;;
72201;SDS011;60105;54.956;73.412;2023-03-14T16:03:22;16.77;;;6.23;;
72201;SDS011;60105;54.956;73.412;2023-03-14T16:06:56;15.02;;;6.43;;
72201;SDS011;60105;54.956;73.412;2023-03-14T16:10:08;14.43;;;6.28;;
72201;SDS011;60105;54.956;73.412;2023-03-14T16:13:13;14.73;;;6.77;;
72201;SDS011;60105;54.956;73.412;2023-03-14T16:16:25;14.73;;;6.10;;
72201;SDS011;60105;54.956;73.412;2023-03-14T16:19:26;22.57;;;5.63;;
72201;SDS011;60105;54.956;73.412;2023-03-14T16:22:31;14.15;;;5.88;;
72201;SDS011;60105;54.956;73.412;2023-03-14T16:25:35;11.35;;;6.55;;
72201;SDS011;60105;54.956;73.412;2023-03-14T16:28:46;14.87;;;6.50;;
72201;SDS011;60105;54.956;73.412;2023-03-14T16:34:57;8.10;;;5.05;;
72201;SDS011;60105;54.956;73.412;2023-03-14T16:37:59;12.80;;;5.50;;
72201;SDS011;60105;54.956;73.412;2023-03-14T16:41:02;14.02;;;7.10;;
72201;SDS011;60105;54.956;73.412;2023-03-14T16:44:13;12.67;;;5.07;;
72201;SDS011;60105;54.956;73.412;2023-03-14T16:47:19;8.50;;;5.68;;
72201;SDS011;60105;54.956;73.412;2023-03-14T16:50:20;12.52;;;5.25;;
72201;SDS011;60105;54.956;73.412;2023-03-14T16:53:22;10.20;;;6.27;;
72201;SDS011;60105;54.956;73.412;2023-03-14T16:59:57;10.18;;;5.25;;
72201;SDS011;60105;54.956;73.412;2023-03-14T17:03:01;11.40;;;5.20;;
72201;SDS011;60105;54.956;73.412;2023-03-14T17:06:14;11.10;;;5.22;;
72201;SDS011;60105;54.956;73.412;2023-03-14T17:09:22;11.88;;;5.60;;
72201;SDS011;60105;54.956;73.412;2023-03-14T17:12:24;10.23;;;5.00;;
72201;SDS011;60105;54.956;73.412;2023-03-14T17:15:30;9.88;;;5.43;;
72201;SDS011;60105;54.956;73.412;2023-03-14T17:18:32;8.82;;;4.82;;
72201;SDS011;60105;54.956;73.412;2023-03-14T17:24:57;5.53;;;3.80;;
72201;SDS011;60105;54.956;73.412;2023-03-14T17:28:00;6.37;;;4.43;;
72201;SDS011;60105;54.956;73.412;2023-03-14T17:34:05;9.17;;;4.90;;
72201;SDS011;60105;54.956;73.412;2023-03-14T17:37:11;8.25;;;5.13;;
72201;SDS011;60105;54.956;73.412;2023-03-14T17:40:13;11.02;;;5.22;;
72201;SDS011;60105;54.956;73.412;2023-03-14T17:43:25;16.60;;;5.30;;
72201;SDS011;60105;54.956;73.412;2023-03-14T17:46:26;13.63;;;4.82;;
72201;SDS011;60105;54.956;73.412;2023-03-14T17:49:27;16.52;;;7.22;;
72201;SDS011;60105;54.956;73.412;2023-03-14T17:52:28;13.20;;;6.30;;
72201;SDS011;60105;54.956;73.412;2023-03-14T17:55:33;14.20;;;6.65;;
72201;SDS011;60105;54.956;73.412;2023-03-14T17:58:34;15.10;;;6.93;;
72201;SDS011;60105;54.956;73.412;2023-03-14T18:05:02;10.02;;;4.70;;
72201;SDS011;60105;54.956;73.412;2023-03-14T18:08:14;12.98;;;5.03;;
72201;SDS011;60105;54.956;73.412;2023-03-14T18:11:56;9.30;;;4.82;;
72201;SDS011;60105;54.956;73.412;2023-03-14T18:15:02;11.77;;;4.95;;
72201;SDS011;60105;54.956;73.412;2023-03-14T18:18:04;11.10;;;5.50;;
72201;SDS011;60105;54.956;73.412;2023-03-14T18:21:10;8.07;;;5.13;;
72201;SDS011;60105;54.956;73.412;2023-03-14T18:24:11;7.77;;;4.47;;
72201;SDS011;60105;54.956;73.412;2023-03-14T18:27:18;8.40;;;5.57;;
72201;SDS011;60105;54.956;73.412;2023-03-14T18:30:29;11.15;;;5.15;;
72201;SDS011;60105;54.956;73.412;2023-03-14T18:33:40;9.45;;;5.05;;
72201;SDS011;60105;54.956;73.412;2023-03-14T18:39:57;7.70;;;4.03;;
72201;SDS011;60105;54.956;73.412;2023-03-14T18:42:59;9.32;;;5.03;;
72201;SDS011;60105;54.956;73.412;2023-03-14T18:46:05;6.47;;;4.53;;
72201;SDS011;60105;54.956;73.412;2023-03-14T18:49:07;9.57;;;4.30;;
72201;SDS011;60105;54.956;73.412;2023-03-14T18:52:10;7.00;;;4.37;;
72201;SDS011;60105;54.956;73.412;2023-03-14T18:55:11;8.48;;;4.75;;
72201;SDS011;60105;54.956;73.412;2023-03-14T18:58:13;7.85;;;4.63;;
72201;SDS011;60105;54.956;73.412;2023-03-14T19:01:56;6.75;;;4.10;;
72201;SDS011;60105;54.956;73.412;2023-03-14T19:05:08;9.15;;;4.80;;
72201;SDS011;60105;54.956;73.412;2023-03-14T19:08:09;8.73;;;4.30;;
72201;SDS011;60105;54.956;73.412;2023-03-14T19:11:56;9.43;;;4.68;;
72201;SDS011;60105;54.956;73.412;2023-03-14T19:15:02;9.97;;;5.50;;
72201;SDS011;60105;54.956;73.412;2023-03-14T19:18:09;6.45;;;3.88;;
72201;SDS011;60105;54.956;73.412;2023-03-14T19:21:11;8.75;;;3.95;;
72201;SDS011;60105;54.956;73.412;2023-03-14T19:24:24;9.27;;;4.73;;
72201;SDS011;60105;54.956;73.412;2023-03-14T19:27:25;6.13;;;3.67;;
72201;SDS011;60105;54.956;73.412;2023-03-14T19:30:26;5.70;;;3.65;;
72201;SDS011;60105;54.956;73.412;2023-03-14T19:33:29;10.23;;;4.60;;
72201;SDS011;60105;54.956;73.412;2023-03-14T19:39:57;9.27;;;5.05;;
72201;SDS011;60105;54.956;73.412;2023-03-14T19:43:01;10.50;;;4.30;;
72201;SDS011;60105;54.956;73.412;2023-03-14T19:46:08;8.10;;;3.60;;
72201;SDS011;60105;54.956;73.412;2023-03-14T19:49:20;10.50;;;4.57;;
72201;SDS011;60105;54.956;73.412;2023-03-14T19:52:26;11.87;;;4.73;;
72201;SDS011;60105;54.956;73.412;2023-03-14T19:55:27;8.57;;;4.60;;
72201;SDS011;60105;54.956;73.412;2023-03-14T19:58:29;7.83;;;3.83;;
72201;SDS011;60105;54.956;73.412;2023-03-14T20:04:59;6.95;;;4.78;;
72201;SDS011;60105;54.956;73.412;2023-03-14T20:08:03;9.23;;;4.10;;
72201;SDS011;60105;54.956;73.412;2023-03-14T20:11:05;8.32;;;4.13;;
72201;SDS011;60105;54.956;73.412;2023-03-14T20:14:08;7.07;;;3.57;;
72201;SDS011;60105;54.956;73.412;2023-03-14T20:17:20;6.60;;;4.40;;
72201;SDS011;60105;54.956;73.412;2023-03-14T20:20:27;7.23;;;4.37;;
72201;SDS011;60105;54.956;73.412;2023-03-14T20:23:39;7.10;;;4.05;;
72201;SDS011;60105;54.956;73.412;2023-03-14T20:29:57;10.98;;;4.63;;
72201;SDS011;60105;54.956;73.412;2023-03-14T20:33:08;8.77;;;4.50;;
72201;SDS011;60105;54.956;73.412;2023-03-14T20:36:10;6.90;;;4.68;;
72201;SDS011;60105;54.956;73.412;2023-03-14T20:39:11;9.13;;;3.92;;
72201;SDS011;60105;54.956;73.412;2023-03-14T20:42:24;8.57;;;4.20;;
72201;SDS011;60105;54.956;73.412;2023-03-14T20:45:26;6.00;;;3.92;;
72201;SDS011;60105;54.956;73.412;2023-03-14T20:48:28;6.18;;;4.10;;
72201;SDS011;60105;54.956;73.412;2023-03-14T20:51:56;7.03;;;4.43;;
72201;SDS011;60105;54.956;73.412;2023-03-14T20:54:57;7.30;;;4.07;;
72201;SDS011;60105;54.956;73.412;2023-03-14T20:57:59;9.77;;;5.13;;
72201;SDS011;60105;54.956;73.412;2023-03-14T21:01:01;10.43;;;4.68;;
72201;SDS011;60105;54.956;73.412;2023-03-14T21:04:02;5.27;;;4.03;;
72201;SDS011;60105;54.956;73.412;2023-03-14T21:07:03;7.30;;;4.50;;
72201;SDS011;60105;54.956;73.412;2023-03-14T21:10:15;9.55;;;5.32;;
72201;SDS011;60105;54.956;73.412;2023-03-14T21:13:16;10.20;;;4.70;;
72201;SDS011;60105;54.956;73.412;2023-03-14T21:16:25;5.60;;;4.18;;
72201;SDS011;60105;54.956;73.412;2023-03-14T21:19:26;12.13;;;4.28;;